Create Tblcommutelog Verified Points Advance Search
| # | Trip ID | Id Commuter | Trip Date | Trip Num | Current Lat | Current Lng | Delta Distance | Current Time | Activity | Activity Confidence | Current Speed | |
|---|---|---|---|---|---|---|---|---|---|---|---|---|
| 69061 | 250501_780204_6461772_1009 | 780204 | (not set) | (not set) | 38.914938371421 | -77.043349682126 | 0 | 2025-05-01 14:13:28.466 | still | 33 | -0.44703925898772 | |
| 69062 | 250501_780204_6461772_1009 | 780204 | (not set) | (not set) | 38.914938371421 | -77.043349682126 | 0.4547 | 2025-05-01 14:13:28.471 | in_vehicle | 100 | -0.44703925898772 | |
| 69063 | 250501_780204_6461772_1009 | 780204 | (not set) | (not set) | 38.908921573248 | -77.044157260509 | 0.8856 | 2025-05-01 14:16:29.298 | in_vehicle | 100 | 3.2231530573015 | |
| 69064 | 250501_781042_16648717_1003 | 781042 | (not set) | (not set) | 39.001797715112 | -77.040186309886 | 6.6771 | 2025-05-01 14:16:31.243 | in_vehicle | 100 | 7.9885915581106 | |
| 69065 | 250501_780204_6461772_1009 | 780204 | (not set) | (not set) | 38.908155889833 | -77.044855838027 | 0.9505 | 2025-05-01 14:16:42.182 | in_vehicle | 100 | 3.6478403533398 | |
| 69066 | 250501_781042_16648717_1003 | 781042 | (not set) | (not set) | 38.999541588101 | -77.03990711462 | 6.8335 | 2025-05-01 14:16:45.157 | in_vehicle | 100 | 7.5951970102014 | |
| 69067 | 250501_781042_16648717_1003 | 781042 | (not set) | (not set) | 38.997933737972 | -77.038664515771 | 6.963 | 2025-05-01 14:16:58.163 | in_vehicle | 100 | 8.2836374690425 | |
| 69068 | 250501_780204_6461772_1009 | 780204 | (not set) | (not set) | 38.906779238094 | -77.044968145571 | 1.0457 | 2025-05-01 14:17:05.373 | in_vehicle | 100 | 3.1605675610432 | |
| 69069 | 250501_781042_16648717_1003 | 781042 | (not set) | (not set) | 38.99668690852 | -77.036647626732 | 7.1015 | 2025-05-01 14:17:17.194 | in_vehicle | 100 | 0.040233533308895 | |
| 69070 | 250501_781042_16648717_1003 | 781042 | (not set) | (not set) | 38.996687641152 | -77.036648960113 | 7.1015 | 2025-05-01 14:17:18.108 | in_vehicle | 100 | 0 | |
| 69071 | 250501_780204_6461772_1009 | 780204 | (not set) | (not set) | 38.905868689405 | -77.044996736405 | 1.1085 | 2025-05-01 14:17:20.278 | in_vehicle | 100 | 1.564637406457 | |
| 69072 | 250501_776351_16457032_0905 | 776351 | (not set) | (not set) | 38.922485351562 | -77.22622480263 | 0.4429 | 2025-05-01 14:17:45.174 | still | 33 | -0.44703925898772 | |
| 69073 | 250501_776351_16457032_0905 | 776351 | (not set) | (not set) | 38.92249887717 | -77.22622480263 | 0.4429 | 2025-05-01 14:17:45.203 | still | 33 | -0.44703925898772 | |
| 69074 | 250501_781042_16648717_1003 | 781042 | (not set) | (not set) | 38.996250479893 | -77.036457322678 | 7.1333 | 2025-05-01 14:17:46.198 | in_vehicle | 100 | 4.9442542044042 | |
| 69075 | 250501_776351_16457032_0905 | 776351 | (not set) | (not set) | 38.921859641245 | -77.224699942782 | 0.4429 | 2025-05-01 14:17:51.171 | still | 33 | -0.44703925898772 | |
| 69076 | 250501_776351_16457032_0905 | 776351 | (not set) | (not set) | 38.921301791726 | -77.223530034844 | 0.4429 | 2025-05-01 14:17:52.064 | still | 33 | -0.44703925898772 | |
| 69077 | 250501_776351_16457032_0905 | 776351 | (not set) | (not set) | 38.920531671785 | -77.222077602331 | 1.6433 | 2025-05-01 14:17:56.502 | still | 33 | -0.44703925898772 | |
| 69078 | 250501_781042_16648717_1003 | 781042 | (not set) | (not set) | 38.994889543622 | -77.036337060351 | 7.2274 | 2025-05-01 14:17:59.117 | in_vehicle | 100 | 3.6612515311095 | |
| 69079 | 250501_780204_6461772_1009 | 780204 | (not set) | (not set) | 38.905803337678 | -77.04500052598 | 1.1085 | 2025-05-01 14:18:02.832 | in_vehicle | 100 | 0 | |
| 69080 | 250501_780204_6461772_1009 | 780204 | (not set) | (not set) | 38.905800125908 | -77.045027293449 | 1.1085 | 2025-05-01 14:18:02.834 | in_vehicle | 100 | -0.44703925898772 |